Temp: 10.1°C   Baro: 992.0mb
  Wind: 0.9mph   Dir: ESE (104°)
  Rain: 3.2mm (3.8mm/hr)
  Solar: 0W/m2  Hum: 86%
 
Bath Spa Weather Station Historical Data
Daily Summary for August 10, 2019 Units:  Both    English   Metric
Daily Weekly Monthly Yearly Custom
  High: Low: Average:
Temperature: 59.2 °F /  15.1 °C 44.6 °F /  7 °C 53.1 °F /  11.7 °C
Dew Point: 55.2 °F /  12.9 °C 42.6 °F /  5.9 °C 49.2 °F /  9.6 °C
Humidity: 95% 72.5% 87%
Wind Speed: 11.9mph /  19.2km/h - 5.3mph /  8.5km/h
Wind Gust: 22mph /  35.4km/h - -
Wind- - West
Pressure: 29.91 in /  1012.8 hPa 29.76 in /  1007.7 hPa -
Precipitation: 0.09 in /  2.29 mm    
Historical Graphs
 
 
Tabular Data for August 10, 2019
Time Temperature Dew Point Pressure Wind Wind Speed Wind Gust Humidity Rainfall Rate (Hourly) solar
00:04 46.8 °F /  8.2 °C 44.8 °F /  7.1 °C 29.76in /  1007.7hPa NW 3.2mph /  5.1km/h 7mph /  11.3km/h 93% 0.00in /  0mm 0 W/m2
00:09 46.8 °F /  8.2 °C 44.8 °F /  7.1 °C 29.76in /  1007.7hPa NW 2.5mph /  4km/h 6mph /  9.7km/h 93% 0.00in /  0mm 0 W/m2
00:14 46.7 °F /  8.2 °C 44.7 °F /  7.1 °C 29.76in /  1007.7hPa NW 2.5mph /  4km/h 5mph /  8km/h 93% 0.00in /  0mm 0 W/m2
00:19 46.6 °F /  8.1 °C 44.6 °F /  7 °C 29.76in /  1007.7hPa NW 2.6mph /  4.2km/h 5mph /  8km/h 93% 0.00in /  0mm 0 W/m2
00:24 46.5 °F /  8.1 °C 44.5 °F /  6.9 °C 29.76in /  1007.7hPa NW 1.9mph /  3.1km/h 4mph /  6.4km/h 93% 0.00in /  0mm 0 W/m2
00:29 46.4 °F /  8 °C 44.4 °F /  6.9 °C 29.76in /  1007.7hPa NW 3mph /  4.8km/h 5mph /  8km/h 93% 0.00in /  0mm 0 W/m2
00:34 46.4 °F /  8 °C 44.4 °F /  6.9 °C 29.76in /  1007.7hPa NW 2.2mph /  3.5km/h 5mph /  8km/h 93% 0.00in /  0mm 0 W/m2
00:39 46.4 °F /  8 °C 44.4 °F /  6.9 °C 29.76in /  1007.7hPa NW 2.7mph /  4.3km/h 5mph /  8km/h 93% 0.00in /  0mm 0 W/m2
00:44 46.4 °F /  8 °C 44.4 °F /  6.9 °C 29.77in /  1008hPa NW 1.8mph /  2.9km/h 5mph /  8km/h 93% 0.00in /  0mm 0 W/m2
00:49 46.4 °F /  8 °C 44.4 °F /  6.9 °C 29.77in /  1008hPa NW 2.4mph /  3.9km/h 4mph /  6.4km/h 93% 0.00in /  0mm 0 W/m2
00:54 46.4 °F /  8 °C 44.4 °F /  6.9 °C 29.76in /  1007.7hPa NW 2.9mph /  4.7km/h 5mph /  8km/h 93% 0.00in /  0mm 0 W/m2
00:59 46.4 °F /  8 °C 44.4 °F /  6.9 °C 29.77in /  1008hPa NW 2.9mph /  4.7km/h 6mph /  9.7km/h 93% 0.00in /  0mm 0 W/m2
01:04 46.4 °F /  8 °C 44.4 °F /  6.9 °C 29.77in /  1008hPa NW 2.4mph /  3.9km/h 6mph /  9.7km/h 93% 0.00in /  0mm 0 W/m2
01:09 46.2 °F /  7.9 °C 44.2 °F /  6.8 °C 29.77in /  1008hPa NW 2.4mph /  3.9km/h 5mph /  8km/h 93% 0.00in /  0mm 0 W/m2
01:14 46.2 °F /  7.9 °C 44.2 °F /  6.8 °C 29.77in /  1008hPa NW 2.8mph /  4.5km/h 5mph /  8km/h 93% 0.00in /  0mm 0 W/m2
01:19 46.2 °F /  7.9 °C 44.2 °F /  6.8 °C 29.78in /  1008.4hPa NW 2mph /  3.2km/h 5mph /  8km/h 93% 0.00in /  0mm 0 W/m2
01:24 46 °F /  7.8 °C 44.1 °F /  6.7 °C 29.78in /  1008.4hPa NW 2mph /  3.2km/h 4mph /  6.4km/h 93% 0.00in /  0mm 0 W/m2
01:29 46 °F /  7.8 °C 44.1 °F /  6.7 °C 29.78in /  1008.4hPa NW 2.7mph /  4.3km/h 4mph /  6.4km/h 93% 0.00in /  0mm 0 W/m2
01:34 46 °F /  7.8 °C 44.1 °F /  6.7 °C 29.78in /  1008.4hPa NW 0.7mph /  1.1km/h 4mph /  6.4km/h 93% 0.00in /  0mm 0 W/m2
01:39 46 °F /  7.8 °C 44 °F /  6.7 °C 29.78in /  1008.4hPa NW 0.1mph /  0.2km/h 1mph /  1.6km/h 93% 0.00in /  0mm 0 W/m2
01:44 45.9 °F /  7.7 °C 43.9 °F /  6.6 °C 29.78in /  1008.4hPa NW 0.1mph /  0.2km/h 1mph /  1.6km/h 93% 0.00in /  0mm 0 W/m2
01:49 45.7 °F /  7.6 °C 43.7 °F /  6.5 °C 29.78in /  1008.4hPa NW 0.4mph /  0.6km/h 2mph /  3.2km/h 93% 0.00in /  0mm 0 W/m2
01:54 45.5 °F /  7.5 °C 43.5 °F /  6.4 °C 29.78in /  1008.4hPa NW 0.5mph /  0.8km/h 2mph /  3.2km/h 93% 0.00in /  0mm 0 W/m2
01:59 45.3 °F /  7.4 °C 43.3 °F /  6.3 °C 29.78in /  1008.4hPa NW 0.1mph /  0.2km/h 2mph /  3.2km/h 93% 0.00in /  0mm 0 W/m2
02:04 45.1 °F /  7.3 °C 43.2 °F /  6.2 °C 29.79in /  1008.7hPa NW 1.2mph /  1.9km/h 4mph /  6.4km/h 93% 0.00in /  0mm 0 W/m2
02:09 45.6 °F /  7.6 °C 43.6 °F /  6.4 °C 29.79in /  1008.7hPa NW 1.2mph /  1.9km/h 5mph /  8km/h 93% 0.00in /  0mm 0 W/m2
02:14 45.7 °F /  7.6 °C 43.7 °F /  6.5 °C 29.79in /  1008.7hPa Calm   1mph /  1.6km/h 93% 0.00in /  0mm 0 W/m2
02:19 45.4 °F /  7.4 °C 43.4 °F /  6.3 °C 29.79in /  1008.7hPa NW 2.1mph /  3.4km/h 4mph /  6.4km/h 93% 0.00in /  0mm 0 W/m2
02:24 45.8 °F /  7.7 °C 43.8 °F /  6.6 °C 29.79in /  1008.7hPa NW 3.9mph /  6.3km/h 7mph /  11.3km/h 93% 0.00in /  0mm 0 W/m2
02:29 46.1 °F /  7.8 °C 44.1 °F /  6.7 °C 29.79in /  1008.7hPa NW 5mph /  8km/h 9mph /  14.5km/h 93% 0.00in /  0mm 0 W/m2
02:34 46.2 °F /  7.9 °C 44.2 °F /  6.8 °C 29.79in /  1008.7hPa NW 3.9mph /  6.3km/h 8mph /  12.9km/h 93% 0.00in /  0mm 0 W/m2
02:39 46.2 °F /  7.9 °C 44.2 °F /  6.8 °C 29.80in /  1009hPa WNW 4mph /  6.4km/h 9mph /  14.5km/h 93% 0.00in /  0mm 0 W/m2
02:44 46.4 °F /  8 °C 44.4 °F /  6.9 °C 29.80in /  1009hPa NW 3.7mph /  6km/h 9mph /  14.5km/h 93% 0.00in /  0mm 0 W/m2
02:49 46.6 °F /  8.1 °C 44.6 °F /  7 °C 29.80in /  1009hPa NW 3.1mph /  5km/h 6mph /  9.7km/h 93% 0.00in /  0mm 0 W/m2
02:54 46.8 °F /  8.2 °C 44.9 °F /  7.2 °C 29.80in /  1009hPa NW 3.4mph /  5.5km/h 6mph /  9.7km/h 93% 0.00in /  0mm 0 W/m2
02:59 47.1 °F /  8.4 °C 45.1 °F /  7.3 °C 29.80in /  1009hPa WNW 3.8mph /  6.1km/h 7mph /  11.3km/h 93% 0.00in /  0mm 0 W/m2
03:04 47.3 °F /  8.5 °C 45.3 °F /  7.4 °C 29.80in /  1009hPa WNW 2mph /  3.2km/h 6mph /  9.7km/h 93% 0.00in /  0mm 0 W/m2
03:09 47.3 °F /  8.5 °C 45.3 °F /  7.4 °C 29.80in /  1009hPa WNW 2.6mph /  4.2km/h 6mph /  9.7km/h 93% 0.00in /  0mm 0 W/m2
03:14 47.2 °F /  8.4 °C 45.2 °F /  7.3 °C 29.80in /  1009hPa NW 4.1mph /  6.6km/h 8mph /  12.9km/h 93% 0.00in /  0mm 0 W/m2
03:19 47.3 °F /  8.5 °C 45.3 °F /  7.4 °C 29.80in /  1009hPa NW 3.5mph /  5.6km/h 8mph /  12.9km/h 93% 0.00in /  0mm 0 W/m2
03:24 47.3 °F /  8.5 °C 45.3 °F /  7.4 °C 29.80in /  1009hPa NW 2.8mph /  4.5km/h 5mph /  8km/h 93% 0.00in /  0mm 0 W/m2
03:29 47.3 °F /  8.5 °C 45.3 °F /  7.4 °C 29.81in /  1009.4hPa NW 4.1mph /  6.6km/h 7mph /  11.3km/h 93% 0.00in /  0mm 0 W/m2
03:34 47.3 °F /  8.5 °C 45.3 °F /  7.4 °C 29.81in /  1009.4hPa NW 3.9mph /  6.3km/h 6mph /  9.7km/h 93% 0.00in /  0mm 0 W/m2
03:39 47.4 °F /  8.6 °C 45.4 °F /  7.4 °C 29.81in /  1009.4hPa NW 3.4mph /  5.5km/h 7mph /  11.3km/h 93% 0.00in /  0mm 0 W/m2
03:44 47.5 °F /  8.6 °C 45.5 °F /  7.5 °C 29.81in /  1009.4hPa NW 2.9mph /  4.7km/h 7mph /  11.3km/h 93% 0.00in /  0mm 0 W/m2
03:49 47.6 °F /  8.7 °C 45.5 °F /  7.5 °C 29.81in /  1009.4hPa NW 1.5mph /  2.4km/h 5mph /  8km/h 92.3% 0.00in /  0mm 0 W/m2
03:54 47.5 °F /  8.6 °C 45.4 °F /  7.4 °C 29.81in /  1009.4hPa NW 1.7mph /  2.7km/h 5mph /  8km/h 92.2% 0.00in /  0mm 0 W/m2
03:59 47.4 °F /  8.6 °C 45.2 °F /  7.3 °C 29.81in /  1009.4hPa NW 1.6mph /  2.6km/h 6mph /  9.7km/h 92% 0.00in /  0mm 0 W/m2
04:04 47.3 °F /  8.5 °C 45.1 °F /  7.3 °C 29.81in /  1009.4hPa NW 0.6mph /  1km/h 4mph /  6.4km/h 92% 0.00in /  0mm 0 W/m2
04:09 47.3 °F /  8.5 °C 45.1 °F /  7.3 °C 29.82in /  1009.7hPa NW 0.3mph /  0.5km/h 3mph /  4.8km/h 92% 0.00in /  0mm 0 W/m2
04:14 47.3 °F /  8.5 °C 45.1 °F /  7.3 °C 29.82in /  1009.7hPa Calm   1mph /  1.6km/h 92% 0.00in /  0mm 0 W/m2
04:19 47.1 °F /  8.4 °C 45 °F /  7.2 °C 29.82in /  1009.7hPa Calm   1mph /  1.6km/h 92% 0.00in /  0mm 0 W/m2
04:24 46.9 °F /  8.3 °C 44.7 °F /  7.1 °C 29.82in /  1009.7hPa Calm   1mph /  1.6km/h 92% 0.00in /  0mm 0 W/m2
04:29 46.5 °F /  8.1 °C 44.3 °F /  6.8 °C 29.82in /  1009.7hPa Calm   1mph /  1.6km/h 92% 0.00in /  0mm 0 W/m2
04:34 46.1 °F /  7.8 °C 44 °F /  6.7 °C 29.82in /  1009.7hPa Calm   1mph /  1.6km/h 92% 0.00in /  0mm 0 W/m2
04:39 45.8 °F /  7.7 °C 43.6 °F /  6.4 °C 29.83in /  1010hPa NW 0.3mph /  0.5km/h 2mph /  3.2km/h 92% 0.00in /  0mm 0 W/m2
04:44 45.5 °F /  7.5 °C 43.3 °F /  6.3 °C 29.83in /  1010hPa Calm     92% 0.01in /  0.25mm 0 W/m2
04:49 45.3 °F /  7.4 °C 43.2 °F /  6.2 °C 29.83in /  1010hPa Calm     92% 0.01in /  0.25mm 0 W/m2
04:54 45.2 °F /  7.3 °C 43.1 °F /  6.2 °C 29.83in /  1010hPa NW 0.1mph /  0.2km/h 2mph /  3.2km/h 92% 0.01in /  0.25mm 0 W/m2
04:59 45.1 °F /  7.3 °C 43 °F /  6.1 °C 29.83in /  1010hPa NW 1.5mph /  2.4km/h 3mph /  4.8km/h 92% 0.01in /  0.25mm 0 W/m2
05:04 45.1 °F /  7.3 °C 43 °F /  6.1 °C 29.83in /  1010hPa NW 0.1mph /  0.2km/h 2mph /  3.2km/h 92.1% 0.01in /  0.25mm 0 W/m2
05:09 45 °F /  7.2 °C 42.9 °F /  6.1 °C 29.83in /  1010hPa Calm     92.4% 0.01in /  0.25mm 0 W/m2
05:14 45 °F /  7.2 °C 42.8 °F /  6 °C 29.83in /  1010hPa Calm     92% 0.01in /  0.25mm 0 W/m2
05:19 45 °F /  7.2 °C 42.9 °F /  6.1 °C 29.83in /  1010hPa Calm     92.7% 0.01in /  0.25mm 0 W/m2
05:24 45 °F /  7.2 °C 43 °F /  6.1 °C 29.84in /  1010.4hPa NW 0.2mph /  0.3km/h 1mph /  1.6km/h 93% 0.01in /  0.25mm 0 W/m2
05:29 44.8 °F /  7.1 °C 42.8 °F /  6 °C 29.84in /  1010.4hPa Calm     93% 0.01in /  0.25mm 0 W/m2
05:34 44.7 °F /  7.1 °C 42.7 °F /  5.9 °C 29.84in /  1010.4hPa Calm     93% 0.01in /  0.25mm 0 W/m2
05:39 44.6 °F /  7 °C 42.6 °F /  5.9 °C 29.84in /  1010.4hPa Calm     93% 0.01in /  0.25mm 0 W/m2
05:44 44.6 °F /  7 °C 42.6 °F /  5.9 °C 29.84in /  1010.4hPa Calm     93% 0.00in /  0mm 0 W/m2
05:49 44.7 °F /  7.1 °C 42.7 °F /  5.9 °C 29.84in /  1010.4hPa Calm     93% 0.00in /  0mm 0 W/m2
05:54 44.7 °F /  7.1 °C 42.7 °F /  5.9 °C 29.84in /  1010.4hPa Calm     93% 0.00in /  0mm 0 W/m2
05:59 44.8 °F /  7.1 °C 42.8 °F /  6 °C 29.84in /  1010.4hPa Calm     93% 0.00in /  0mm 0 W/m2
06:04 44.8 °F /  7.1 °C 42.8 °F /  6 °C 29.84in /  1010.4hPa Calm     93% 0.00in /  0mm 0 W/m2
06:09 44.8 °F /  7.1 °C 42.8 °F /  6 °C 29.84in /  1010.4hPa Calm     93% 0.00in /  0mm 0 W/m2
06:14 44.9 °F /  7.2 °C 42.9 °F /  6.1 °C 29.84in /  1010.4hPa Calm     93% 0.00in /  0mm 0 W/m2
06:19 45 °F /  7.2 °C 43.1 °F /  6.2 °C 29.84in /  1010.4hPa Calm     93.4% 0.00in /  0mm 0 W/m2
06:24 44.9 °F /  7.2 °C 43.2 °F /  6.2 °C 29.84in /  1010.4hPa Calm     93.9% 0.00in /  0mm 0 W/m2
06:29 44.9 °F /  7.2 °C 43.1 °F /  6.2 °C 29.84in /  1010.4hPa NW 0.3mph /  0.5km/h 2mph /  3.2km/h 93.6% 0.00in /  0mm 0 W/m2
06:34 45.1 °F /  7.3 °C 43.5 °F /  6.4 °C 29.84in /  1010.4hPa NW 0.2mph /  0.3km/h 2mph /  3.2km/h 94% 0.00in /  0mm 0 W/m2
06:39 45.3 °F /  7.4 °C 43.7 °F /  6.5 °C 29.84in /  1010.4hPa Calm   1mph /  1.6km/h 94% 0.00in /  0mm 0 W/m2
06:44 45.4 °F /  7.4 °C 43.8 °F /  6.6 °C 29.84in /  1010.4hPa NW 0.2mph /  0.3km/h 2mph /  3.2km/h 94% 0.00in /  0mm 0 W/m2
06:49 45.5 °F /  7.5 °C 43.9 °F /  6.6 °C 29.85in /  1010.7hPa Calm   1mph /  1.6km/h 94% 0.00in /  0mm 0 W/m2
06:54 45.6 °F /  7.6 °C 44 °F /  6.7 °C 29.85in /  1010.7hPa Calm   1mph /  1.6km/h 94% 0.00in /  0mm 0 W/m2
06:59 45.6 °F /  7.6 °C 44 °F /  6.7 °C 29.85in /  1010.7hPa NW 0.6mph /  1km/h 2mph /  3.2km/h 94% 0.00in /  0mm 0 W/m2
07:04 45.5 °F /  7.5 °C 43.9 °F /  6.6 °C 29.85in /  1010.7hPa NW 0.4mph /  0.6km/h 2mph /  3.2km/h 94% 0.00in /  0mm 0 W/m2
07:09 45.5 °F /  7.5 °C 43.9 °F /  6.6 °C 29.85in /  1010.7hPa NW 1.5mph /  2.4km/h 3mph /  4.8km/h 94% 0.00in /  0mm 0 W/m2
07:14 45.7 °F /  7.6 °C 44.1 °F /  6.7 °C 29.85in /  1010.7hPa NW 2.4mph /  3.9km/h 3mph /  4.8km/h 94% 0.00in /  0mm 0 W/m2
07:19 45.9 °F /  7.7 °C 44.2 °F /  6.8 °C 29.85in /  1010.7hPa NW 1.8mph /  2.9km/h 3mph /  4.8km/h 94% 0.00in /  0mm 0 W/m2
07:24 46 °F /  7.8 °C 44.4 °F /  6.9 °C 29.86in /  1011.1hPa NW 0.8mph /  1.3km/h 4mph /  6.4km/h 94% 0.00in /  0mm 0 W/m2
07:29 46.2 °F /  7.9 °C 44.6 °F /  7 °C 29.86in /  1011.1hPa NW 0.2mph /  0.3km/h 2mph /  3.2km/h 94% 0.00in /  0mm 5 W/m2
07:34 46.1 °F /  7.8 °C 44.5 °F /  6.9 °C 29.86in /  1011.1hPa NW 0.6mph /  1km/h 3mph /  4.8km/h 94% 0.00in /  0mm 9 W/m2
07:39 46.2 °F /  7.9 °C 44.6 °F /  7 °C 29.86in /  1011.1hPa NW 0.1mph /  0.2km/h 2mph /  3.2km/h 94% 0.00in /  0mm 11 W/m2
07:44 46 °F /  7.8 °C 44.4 °F /  6.9 °C 29.86in /  1011.1hPa NW 1.4mph /  2.3km/h 3mph /  4.8km/h 94% 0.00in /  0mm 14 W/m2
07:49 46.1 °F /  7.8 °C 44.5 °F /  6.9 °C 29.86in /  1011.1hPa NW 0.6mph /  1km/h 3mph /  4.8km/h 94% 0.00in /  0mm 18 W/m2
07:54 46 °F /  7.8 °C 44.4 °F /  6.9 °C 29.87in /  1011.4hPa NW 0.1mph /  0.2km/h 2mph /  3.2km/h 94% 0.00in /  0mm 21 W/m2
07:59 46.1 °F /  7.8 °C 44.5 °F /  6.9 °C 29.87in /  1011.4hPa Calm   1mph /  1.6km/h 94% 0.00in /  0mm 21 W/m2
08:04 46.2 °F /  7.9 °C 44.6 °F /  7 °C 29.87in /  1011.4hPa NW 0.6mph /  1km/h 2mph /  3.2km/h 94% 0.00in /  0mm 26 W/m2
08:09 46.3 °F /  7.9 °C 44.7 °F /  7.1 °C 29.87in /  1011.4hPa NW 0.4mph /  0.6km/h 2mph /  3.2km/h 94% 0.00in /  0mm 28 W/m2
08:14 46.7 °F /  8.2 °C 45.2 °F /  7.3 °C 29.88in /  1011.7hPa NW 0.5mph /  0.8km/h 2mph /  3.2km/h 94.9% 0.00in /  0mm 32 W/m2
08:19 46.8 °F /  8.2 °C 45.3 °F /  7.4 °C 29.88in /  1011.7hPa NW 0.1mph /  0.2km/h 2mph /  3.2km/h 95% 0.00in /  0mm 32 W/m2
08:24 46.9 °F /  8.3 °C 45.4 °F /  7.4 °C 29.88in /  1011.7hPa NW 2.9mph /  4.7km/h 5mph /  8km/h 94.5% 0.00in /  0mm 46 W/m2
08:29 47.2 °F /  8.4 °C 45.6 °F /  7.6 °C 29.88in /  1011.7hPa NW 2.3mph /  3.7km/h 5mph /  8km/h 94.3% 0.00in /  0mm 69 W/m2
08:34 47.7 °F /  8.7 °C 46.1 °F /  7.8 °C 29.88in /  1011.7hPa NW 2.2mph /  3.5km/h 5mph /  8km/h 94.6% 0.00in /  0mm 90 W/m2
08:39 48.2 °F /  9 °C 46.7 °F /  8.2 °C 29.88in /  1011.7hPa NW 2.5mph /  4km/h 5mph /  8km/h 94.5% 0.00in /  0mm 104 W/m2
08:44 48.8 °F /  9.3 °C 47.3 °F /  8.5 °C 29.89in /  1012.1hPa West 4.6mph /  7.4km/h 10mph /  16.1km/h 94.6% 0.00in /  0mm 107 W/m2
08:49 49.3 °F /  9.6 °C 47.6 °F /  8.7 °C 29.88in /  1011.7hPa WSW 5.4mph /  8.7km/h 10mph /  16.1km/h 94% 0.00in /  0mm 70 W/m2
08:54 49.5 °F /  9.7 °C 47.8 °F /  8.8 °C 29.89in /  1012.1hPa WSW 4.8mph /  7.7km/h 10mph /  16.1km/h 94% 0.00in /  0mm 65 W/m2
08:59 49.6 °F /  9.8 °C 48 °F /  8.9 °C 29.89in /  1012.1hPa WSW 5.6mph /  9km/h 10mph /  16.1km/h 94% 0.00in /  0mm 132 W/m2
09:04 49.9 °F /  9.9 °C 48.3 °F /  9.1 °C 29.89in /  1012.1hPa WSW 5.6mph /  9km/h 11mph /  17.7km/h 93.9% 0.00in /  0mm 132 W/m2
09:09 50 °F /  10 °C 48 °F /  8.9 °C 29.89in /  1012.1hPa West 5.7mph /  9.2km/h 15mph /  24.1km/h 93% 0.00in /  0mm 156 W/m2
09:14 50.4 °F /  10.2 °C 48.3 °F /  9.1 °C 29.89in /  1012.1hPa WSW 7.6mph /  12.2km/h 13mph /  20.9km/h 92.6% 0.00in /  0mm 160 W/m2
09:19 50.7 °F /  10.4 °C 48.6 °F /  9.2 °C 29.89in /  1012.1hPa WSW 5.1mph /  8.2km/h 15mph /  24.1km/h 92% 0.00in /  0mm 98 W/m2
09:24 50.7 °F /  10.4 °C 48.2 °F /  9 °C 29.90in /  1012.4hPa WSW 4.1mph /  6.6km/h 9mph /  14.5km/h 91% 0.00in /  0mm 132 W/m2
09:29 50.9 °F /  10.5 °C 48.3 °F /  9.1 °C 29.90in /  1012.4hPa WSW 5.8mph /  9.3km/h 15mph /  24.1km/h 90.9% 0.00in /  0mm 163 W/m2
09:34 51.3 °F /  10.7 °C 48.5 °F /  9.2 °C 29.90in /  1012.4hPa WSW 7mph /  11.3km/h 15mph /  24.1km/h 90% 0.00in /  0mm 211 W/m2
09:39 51.8 °F /  11 °C 48.7 °F /  9.3 °C 29.90in /  1012.4hPa West 5.6mph /  9km/h 15mph /  24.1km/h 89% 0.00in /  0mm 218 W/m2
09:44 52.2 °F /  11.2 °C 48.7 °F /  9.3 °C 29.89in /  1012.1hPa West 4.8mph /  7.7km/h 10mph /  16.1km/h 88.1% 0.00in /  0mm 236 W/m2
09:49 52.7 °F /  11.5 °C 49 °F /  9.4 °C 29.89in /  1012.1hPa WSW 4.9mph /  7.9km/h 12mph /  19.3km/h 87.3% 0.00in /  0mm 330 W/m2
09:54 53.1 °F /  11.7 °C 49.2 °F /  9.6 °C 29.90in /  1012.4hPa WSW 6.9mph /  11.1km/h 12mph /  19.3km/h 86.4% 0.00in /  0mm 243 W/m2
09:59 53.3 °F /  11.8 °C 49.2 °F /  9.6 °C 29.90in /  1012.4hPa West 6mph /  9.7km/h 12mph /  19.3km/h 86% 0.00in /  0mm 311 W/m2
10:04 53.6 °F /  12 °C 49.3 °F /  9.6 °C 29.90in /  1012.4hPa West 7.6mph /  12.2km/h 16mph /  25.7km/h 85% 0.00in /  0mm 302 W/m2
10:09 54 °F /  12.2 °C 49.1 °F /  9.5 °C 29.90in /  1012.4hPa WSW 9.9mph /  15.9km/h 16mph /  25.7km/h 83.4% 0.00in /  0mm 255 W/m2
10:14 54.2 °F /  12.3 °C 48.8 °F /  9.3 °C 29.90in /  1012.4hPa WSW 8.2mph /  13.2km/h 14mph /  22.5km/h 82% 0.00in /  0mm 271 W/m2
10:19 54.1 °F /  12.3 °C 48.8 °F /  9.3 °C 29.90in /  1012.4hPa WSW 6.3mph /  10.1km/h 13mph /  20.9km/h 82.1% 0.00in /  0mm 315 W/m2
10:24 54.1 °F /  12.3 °C 49.1 °F /  9.5 °C 29.90in /  1012.4hPa WSW 6.6mph /  10.6km/h 12mph /  19.3km/h 83% 0.00in /  0mm 334 W/m2
10:29 54.1 °F /  12.3 °C 49.1 °F /  9.5 °C 29.90in /  1012.4hPa WSW 7.6mph /  12.2km/h 13mph /  20.9km/h 83% 0.00in /  0mm 216 W/m2
10:34 54 °F /  12.2 °C 48.9 °F /  9.4 °C 29.90in /  1012.4hPa WSW 7.5mph /  12.1km/h 15mph /  24.1km/h 83% 0.00in /  0mm 229 W/m2
10:39 54.1 °F /  12.3 °C 49.4 °F /  9.7 °C 29.90in /  1012.4hPa WSW 6.9mph /  11.1km/h 13mph /  20.9km/h 83.8% 0.00in /  0mm 318 W/m2
10:44 54.2 °F /  12.3 °C 49.5 °F /  9.7 °C 29.90in /  1012.4hPa WSW 7.8mph /  12.6km/h 14mph /  22.5km/h 84% 0.00in /  0mm 527 W/m2
10:49 54.7 °F /  12.6 °C 49.8 °F /  9.9 °C 29.90in /  1012.4hPa WSW 8.1mph /  13km/h 15mph /  24.1km/h 83.4% 0.00in /  0mm 550 W/m2
10:54 54.7 °F /  12.6 °C 49.6 °F /  9.8 °C 29.90in /  1012.4hPa WSW 6.1mph /  9.8km/h 15mph /  24.1km/h 83% 0.00in /  0mm 213 W/m2
10:59 54.5 °F /  12.5 °C 49.5 °F /  9.7 °C 29.90in /  1012.4hPa WSW 6.2mph /  10km/h 15mph /  24.1km/h 83% 0.00in /  0mm 281 W/m2
11:04 54.6 °F /  12.6 °C 49.6 °F /  9.8 °C 29.90in /  1012.4hPa WSW 8.5mph /  13.7km/h 16mph /  25.7km/h 83.1% 0.00in /  0mm 299 W/m2
11:09 54.8 °F /  12.7 °C 49.8 °F /  9.9 °C 29.90in /  1012.4hPa WSW 7.4mph /  11.9km/h 16mph /  25.7km/h 83.2% 0.00in /  0mm 338 W/m2
11:14 55 °F /  12.8 °C 49.8 °F /  9.9 °C 29.90in /  1012.4hPa WSW 10.2mph /  16.4km/h 18mph /  29km/h 82.7% 0.00in /  0mm 197 W/m2
11:19 55 °F /  12.8 °C 49.9 °F /  9.9 °C 29.90in /  1012.4hPa WSW 7.5mph /  12.1km/h 18mph /  29km/h 82.8% 0.00in /  0mm 183 W/m2
11:24 55 °F /  12.8 °C 49.8 °F /  9.9 °C 29.90in /  1012.4hPa WSW 7.6mph /  12.2km/h 15mph /  24.1km/h 82.4% 0.00in /  0mm 172 W/m2
11:29 55 °F /  12.8 °C 49.6 °F /  9.8 °C 29.90in /  1012.4hPa WSW 7.5mph /  12.1km/h 16mph /  25.7km/h 82% 0.00in /  0mm 107 W/m2
11:34 55 °F /  12.8 °C 49.6 °F /  9.8 °C 29.90in /  1012.4hPa WSW 6.5mph /  10.5km/h 14mph /  22.5km/h 82% 0.00in /  0mm 192 W/m2
11:39 55.2 °F /  12.9 °C 49.8 °F /  9.9 °C 29.90in /  1012.4hPa WSW 7.5mph /  12.1km/h 14mph /  22.5km/h 82% 0.00in /  0mm 250 W/m2
11:44 55.4 °F /  13 °C 50 °F /  10 °C 29.90in /  1012.4hPa WSW 5.9mph /  9.5km/h 14mph /  22.5km/h 82% 0.00in /  0mm 243 W/m2
11:49 55.8 °F /  13.2 °C 50.3 °F /  10.2 °C 29.91in /  1012.8hPa West 7.7mph /  12.4km/h 19mph /  30.6km/h 81.9% 0.00in /  0mm 179 W/m2
11:54 55.8 °F /  13.2 °C 50.1 °F /  10.1 °C 29.90in /  1012.4hPa West 7.7mph /  12.4km/h 19mph /  30.6km/h 81% 0.00in /  0mm 135 W/m2
11:59 55.9 °F /  13.3 °C 50.2 °F /  10.1 °C 29.91in /  1012.8hPa WSW 9.7mph /  15.6km/h 16mph /  25.7km/h 80.9% 0.00in /  0mm 144 W/m2
12:04 55.9 °F /  13.3 °C 49.9 °F /  9.9 °C 29.91in /  1012.8hPa WSW 6.5mph /  10.5km/h 18mph /  29km/h 80.4% 0.00in /  0mm 125 W/m2
12:09 55.8 °F /  13.2 °C 49.7 °F /  9.8 °C 29.91in /  1012.8hPa WSW 8.8mph /  14.2km/h 18mph /  29km/h 80.1% 0.00in /  0mm 155 W/m2
12:14 55.8 °F /  13.2 °C 49.7 °F /  9.8 °C 29.91in /  1012.8hPa WSW 8.7mph /  14km/h 16mph /  25.7km/h 80% 0.00in /  0mm 186 W/m2
12:19 55.9 °F /  13.3 °C 49.7 °F /  9.8 °C 29.90in /  1012.4hPa WSW 8.7mph /  14km/h 17mph /  27.4km/h 80% 0.00in /  0mm 186 W/m2
12:24 56 °F /  13.3 °C 50.1 °F /  10.1 °C 29.90in /  1012.4hPa WSW 4.7mph /  7.6km/h 12mph /  19.3km/h 80.5% 0.00in /  0mm 265 W/m2
12:29 56.2 °F /  13.4 °C 50.2 °F /  10.1 °C 29.90in /  1012.4hPa WSW 7.3mph /  11.7km/h 13mph /  20.9km/h 80.2% 0.00in /  0mm 418 W/m2
12:34 56.7 °F /  13.7 °C 50.3 °F /  10.2 °C 29.90in /  1012.4hPa WSW 6.3mph /  10.1km/h 13mph /  20.9km/h 79.4% 0.00in /  0mm 339 W/m2
12:39 57 °F /  13.9 °C 50.4 °F /  10.2 °C 29.90in /  1012.4hPa WSW 7.2mph /  11.6km/h 14mph /  22.5km/h 78.9% 0.00in /  0mm 274 W/m2
12:44 57 °F /  13.9 °C 50 °F /  10 °C 29.90in /  1012.4hPa WSW 8.5mph /  13.7km/h 14mph /  22.5km/h 77.6% 0.00in /  0mm 216 W/m2
12:49 57.2 °F /  14 °C 50.1 °F /  10.1 °C 29.91in /  1012.8hPa WSW 7.2mph /  11.6km/h 15mph /  24.1km/h 77.2% 0.00in /  0mm 221 W/m2
12:54 57.5 °F /  14.2 °C 50.3 °F /  10.2 °C 29.91in /  1012.8hPa West 11.9mph /  19.2km/h 20mph /  32.2km/h 76.9% 0.00in /  0mm 285 W/m2
12:59 57.6 °F /  14.2 °C 49.6 °F /  9.8 °C 29.91in /  1012.8hPa WSW 9.9mph /  15.9km/h 20mph /  32.2km/h 74.9% 0.00in /  0mm 336 W/m2
13:04 58 °F /  14.4 °C 49.7 °F /  9.8 °C 29.90in /  1012.4hPa WSW 9.1mph /  14.6km/h 19mph /  30.6km/h 73.9% 0.00in /  0mm 763 W/m2
13:09 58.5 °F /  14.7 °C 49.7 °F /  9.8 °C 29.91in /  1012.8hPa WSW 11.5mph /  18.5km/h 20mph /  32.2km/h 72.8% 0.00in /  0mm 659 W/m2
13:14 58.5 °F /  14.7 °C 49.8 °F /  9.9 °C 29.91in /  1012.8hPa WSW 9mph /  14.5km/h 16mph /  25.7km/h 73% 0.00in /  0mm 436 W/m2
13:19 58.5 °F /  14.7 °C 49.8 °F /  9.9 °C 29.90in /  1012.4hPa West 7.5mph /  12.1km/h 13mph /  20.9km/h 73% 0.00in /  0mm 262 W/m2
13:24 58.3 °F /  14.6 °C 49.6 °F /  9.8 °C 29.90in /  1012.4hPa WSW 10.5mph /  16.9km/h 17mph /  27.4km/h 73% 0.00in /  0mm 311 W/m2
13:29 58 °F /  14.4 °C 49.3 °F /  9.6 °C 29.90in /  1012.4hPa WSW 10.6mph /  17.1km/h 22mph /  35.4km/h 72.5% 0.00in /  0mm 309 W/m2
13:34 57.9 °F /  14.4 °C 49.3 °F /  9.6 °C 29.90in /  1012.4hPa WSW 8.9mph /  14.3km/h 16mph /  25.7km/h 73% 0.00in /  0mm 253 W/m2
13:39 57.9 °F /  14.4 °C 49.5 °F /  9.7 °C 29.90in /  1012.4hPa WSW 8.5mph /  13.7km/h 16mph /  25.7km/h 73.8% 0.00in /  0mm 213 W/m2
13:44 57.7 °F /  14.3 °C 49.5 °F /  9.7 °C 29.90in /  1012.4hPa SW 8.9mph /  14.3km/h 17mph /  27.4km/h 74% 0.00in /  0mm 200 W/m2
13:49 57.7 °F /  14.3 °C 49.5 °F /  9.7 °C 29.89in /  1012.1hPa SW 7.8mph /  12.6km/h 15mph /  24.1km/h 74% 0.00in /  0mm 183 W/m2
13:54 57.7 °F /  14.3 °C 49.5 °F /  9.7 °C 29.89in /  1012.1hPa WSW 6mph /  9.7km/h 16mph /  25.7km/h 74% 0.00in /  0mm 130 W/m2
13:59 57.7 °F /  14.3 °C 49.8 °F /  9.9 °C 29.89in /  1012.1hPa WSW 3.9mph /  6.3km/h 9mph /  14.5km/h 75% 0.00in /  0mm 121 W/m2
14:04 57.7 °F /  14.3 °C 49.8 °F /  9.9 °C 29.89in /  1012.1hPa SW 4.2mph /  6.8km/h 8mph /  12.9km/h 75% 0.00in /  0mm 111 W/m2
14:09 57.7 °F /  14.3 °C 49.8 °F /  9.9 °C 29.89in /  1012.1hPa WSW 3.4mph /  5.5km/h 9mph /  14.5km/h 75% 0.00in /  0mm 114 W/m2
14:14 57.7 °F /  14.3 °C 49.8 °F /  9.9 °C 29.89in /  1012.1hPa WSW 7mph /  11.3km/h 11mph /  17.7km/h 75% 0.00in /  0mm 105 W/m2
14:19 57.7 °F /  14.3 °C 49.8 °F /  9.9 °C 29.89in /  1012.1hPa WSW 5.3mph /  8.5km/h 11mph /  17.7km/h 75% 0.00in /  0mm 128 W/m2
14:24 57.9 °F /  14.4 °C 50 °F /  10 °C 29.88in /  1011.7hPa SW 4.1mph /  6.6km/h 10mph /  16.1km/h 75% 0.00in /  0mm 134 W/m2
14:29 57.9 °F /  14.4 °C 50 °F /  10 °C 29.88in /  1011.7hPa SW 6.1mph /  9.8km/h 10mph /  16.1km/h 75% 0.00in /  0mm 118 W/m2
14:34 57.9 °F /  14.4 °C 50 °F /  10 °C 29.88in /  1011.7hPa SW 7.4mph /  11.9km/h 14mph /  22.5km/h 75% 0.00in /  0mm 118 W/m2
14:39 57.9 °F /  14.4 °C 50 °F /  10 °C 29.88in /  1011.7hPa SW 6.8mph /  10.9km/h 12mph /  19.3km/h 75% 0.00in /  0mm 105 W/m2
14:44 58 °F /  14.4 °C 50.1 °F /  10.1 °C 29.88in /  1011.7hPa SW 5mph /  8km/h 12mph /  19.3km/h 75% 0.00in /  0mm 105 W/m2
14:49 58.1 °F /  14.5 °C 50.2 °F /  10.1 °C 29.88in /  1011.7hPa SW 5.2mph /  8.4km/h 12mph /  19.3km/h 75% 0.00in /  0mm 100 W/m2
14:54 58.1 °F /  14.5 °C 50.3 °F /  10.2 °C 29.88in /  1011.7hPa SW 7.8mph /  12.6km/h 14mph /  22.5km/h 75.4% 0.00in /  0mm 104 W/m2
14:59 58.1 °F /  14.5 °C 50.3 °F /  10.2 °C 29.88in /  1011.7hPa SW 6.2mph /  10km/h 14mph /  22.5km/h 75.4% 0.00in /  0mm 113 W/m2
15:04 58.1 °F /  14.5 °C 50.5 °F /  10.3 °C 29.88in /  1011.7hPa SW 6.1mph /  9.8km/h 12mph /  19.3km/h 76% 0.00in /  0mm 125 W/m2
15:09 58.3 °F /  14.6 °C 50.7 °F /  10.4 °C 29.88in /  1011.7hPa SW 5.7mph /  9.2km/h 12mph /  19.3km/h 76% 0.00in /  0mm 125 W/m2
15:14 58.4 °F /  14.7 °C 50.8 °F /  10.4 °C 29.88in /  1011.7hPa SW 9.4mph /  15.1km/h 16mph /  25.7km/h 76% 0.00in /  0mm 109 W/m2
15:19 58.5 °F /  14.7 °C 50.9 °F /  10.5 °C 29.88in /  1011.7hPa SW 6.2mph /  10km/h 14mph /  22.5km/h 76% 0.00in /  0mm 95 W/m2
15:24 58.5 °F /  14.7 °C 51.1 °F /  10.6 °C 29.87in /  1011.4hPa SW 5.8mph /  9.3km/h 15mph /  24.1km/h 76.4% 0.00in /  0mm 77 W/m2
15:29 58.5 °F /  14.7 °C 51.2 °F /  10.7 °C 29.87in /  1011.4hPa SW 6.6mph /  10.6km/h 11mph /  17.7km/h 76.8% 0.00in /  0mm 86 W/m2
15:34 58.5 °F /  14.7 °C 51.3 °F /  10.7 °C 29.87in /  1011.4hPa SSW 4.1mph /  6.6km/h 14mph /  22.5km/h 77% 0.00in /  0mm 174 W/m2
15:39 58.5 °F /  14.7 °C 51.3 °F /  10.7 °C 29.86in /  1011.1hPa SW 5mph /  8km/h 13mph /  20.9km/h 77% 0.00in /  0mm 195 W/m2
15:44 58.6 °F /  14.8 °C 51.4 °F /  10.8 °C 29.86in /  1011.1hPa SW 6.8mph /  10.9km/h 13mph /  20.9km/h 77% 0.00in /  0mm 132 W/m2
15:49 58.6 °F /  14.8 °C 51.5 °F /  10.8 °C 29.85in /  1010.7hPa SW 6.3mph /  10.1km/h 13mph /  20.9km/h 77.3% 0.00in /  0mm 171 W/m2
15:54 58.7 °F /  14.8 °C 51.9 °F /  11.1 °C 29.85in /  1010.7hPa SW 7.4mph /  11.9km/h 15mph /  24.1km/h 78% 0.00in /  0mm 181 W/m2
15:59 58.8 °F /  14.9 °C 52 °F /  11.1 °C 29.85in /  1010.7hPa SW 8mph /  12.9km/h 14mph /  22.5km/h 78% 0.00in /  0mm 176 W/m2
16:04 58.8 °F /  14.9 °C 52 °F /  11.1 °C 29.85in /  1010.7hPa SW 9.4mph /  15.1km/h 16mph /  25.7km/h 78% 0.00in /  0mm 137 W/m2
16:09 58.8 °F /  14.9 °C 52 °F /  11.1 °C 29.85in /  1010.7hPa SW 7.4mph /  11.9km/h 15mph /  24.1km/h 78% 0.00in /  0mm 114 W/m2
16:14 58.8 °F /  14.9 °C 52.2 °F /  11.2 °C 29.85in /  1010.7hPa SW 6.6mph /  10.6km/h 14mph /  22.5km/h 78.5% 0.00in /  0mm 195 W/m2
16:19 58.9 °F /  14.9 °C 52.4 °F /  11.3 °C 29.85in /  1010.7hPa SW 6.4mph /  10.3km/h 12mph /  19.3km/h 79% 0.00in /  0mm 292 W/m2
16:24 59.2 °F /  15.1 °C 52.3 °F /  11.3 °C 29.85in /  1010.7hPa WSW 9.7mph /  15.6km/h 16mph /  25.7km/h 78% 0.00in /  0mm 142 W/m2
16:29 59.2 °F /  15.1 °C 52.3 °F /  11.3 °C 29.85in /  1010.7hPa SW 8.9mph /  14.3km/h 18mph /  29km/h 78% 0.00in /  0mm 118 W/m2
16:34 59.1 °F /  15.1 °C 52.3 °F /  11.3 °C 29.85in /  1010.7hPa SW 10.3mph /  16.6km/h 17mph /  27.4km/h 78% 0.00in /  0mm 132 W/m2
16:39 59.2 °F /  15.1 °C 52.5 °F /  11.4 °C 29.85in /  1010.7hPa WSW 11.2mph /  18km/h 20mph /  32.2km/h 78.4% 0.00in /  0mm 121 W/m2
16:44 59.1 °F /  15.1 °C 52.6 °F /  11.4 °C 29.85in /  1010.7hPa SW 10.7mph /  17.2km/h 19mph /  30.6km/h 79% 0.00in /  0mm 114 W/m2
16:49 59 °F /  15 °C 52.5 °F /  11.4 °C 29.85in /  1010.7hPa SW 6.5mph /  10.5km/h 19mph /  30.6km/h 79% 0.00in /  0mm 102 W/m2
16:54 59 °F /  15 °C 52.8 °F /  11.6 °C 29.85in /  1010.7hPa WSW 8.5mph /  13.7km/h 17mph /  27.4km/h 79.6% 0.00in /  0mm 97 W/m2
16:59 59 °F /  15 °C 52.8 °F /  11.6 °C 29.85in /  1010.7hPa SW 8.6mph /  13.8km/h 17mph /  27.4km/h 80% 0.00in /  0mm 179 W/m2
17:04 59 °F /  15 °C 52.9 °F /  11.6 °C 29.85in /  1010.7hPa SW 8.1mph /  13km/h 14mph /  22.5km/h 80% 0.00in /  0mm 156 W/m2
17:09 59 °F /  15 °C 52.9 °F /  11.6 °C 29.84in /  1010.4hPa SW 8mph /  12.9km/h 18mph /  29km/h 80% 0.00in /  0mm 172 W/m2
17:14 58.9 °F /  14.9 °C 52.9 °F /  11.6 °C 29.84in /  1010.4hPa SW 8.7mph /  14km/h 19mph /  30.6km/h 80.2% 0.00in /  0mm 111 W/m2
17:19 58.8 °F /  14.9 °C 53.1 °F /  11.7 °C 29.84in /  1010.4hPa SW 6mph /  9.7km/h 11mph /  17.7km/h 81% 0.00in /  0mm 111 W/m2
17:24 58.6 °F /  14.8 °C 53.2 °F /  11.8 °C 29.84in /  1010.4hPa WSW 7.9mph /  12.7km/h 18mph /  29km/h 81.8% 0.00in /  0mm 70 W/m2
17:29 58.6 °F /  14.8 °C 53.2 °F /  11.8 °C 29.84in /  1010.4hPa SW 8.9mph /  14.3km/h 17mph /  27.4km/h 82% 0.00in /  0mm 62 W/m2
17:34 58.5 °F /  14.7 °C 53.2 °F /  11.8 °C 29.85in /  1010.7hPa SW 6.6mph /  10.6km/h 15mph /  24.1km/h 83% 0.00in /  0mm 63 W/m2
17:39 58.5 °F /  14.7 °C 53.2 °F /  11.8 °C 29.84in /  1010.4hPa SW 7.5mph /  12.1km/h 15mph /  24.1km/h 83% 0.00in /  0mm 40 W/m2
17:44 58.5 °F /  14.7 °C 53.2 °F /  11.8 °C 29.84in /  1010.4hPa SW 9mph /  14.5km/h 16mph /  25.7km/h 83% 0.00in /  0mm 30 W/m2
17:49 58.5 °F /  14.7 °C 53.6 °F /  12 °C 29.84in /  1010.4hPa SW 7.7mph /  12.4km/h 18mph /  29km/h 84% 0.00in /  0mm 32 W/m2
17:54 58.5 °F /  14.7 °C 53.6 °F /  12 °C 29.84in /  1010.4hPa SW 7.3mph /  11.7km/h 15mph /  24.1km/h 84% 0.00in /  0mm 32 W/m2
17:59 58.4 °F /  14.7 °C 53.5 °F /  11.9 °C 29.84in /  1010.4hPa WSW 5.8mph /  9.3km/h 13mph /  20.9km/h 84% 0.00in /  0mm 25 W/m2
18:04 58.1 °F /  14.5 °C 53.4 °F /  11.9 °C 29.84in /  1010.4hPa SW 10mph /  16.1km/h 16mph /  25.7km/h 84.3% 0.00in /  0mm 16 W/m2
18:09 57.9 °F /  14.4 °C 53.5 °F /  11.9 °C 29.84in /  1010.4hPa SW 8.4mph /  13.5km/h 14mph /  22.5km/h 85.1% 0.00in /  0mm 7 W/m2
18:14 57.8 °F /  14.3 °C 53.7 °F /  12.1 °C 29.83in /  1010hPa SW 7.7mph /  12.4km/h 15mph /  24.1km/h 86% 0.00in /  0mm 0 W/m2
18:19 57.7 °F /  14.3 °C 53.7 °F /  12.1 °C 29.83in /  1010hPa SW 6.4mph /  10.3km/h 13mph /  20.9km/h 86.4% 0.00in /  0mm 0 W/m2
18:24 57.6 °F /  14.2 °C 53.8 °F /  12.1 °C 29.83in /  1010hPa SW 6.4mph /  10.3km/h 13mph /  20.9km/h 87% 0.00in /  0mm 0 W/m2
18:29 57.6 °F /  14.2 °C 53.8 °F /  12.1 °C 29.83in /  1010hPa SW 6.6mph /  10.6km/h 15mph /  24.1km/h 87.2% 0.00in /  0mm 0 W/m2
18:34 57.6 °F /  14.2 °C 53.9 °F /  12.2 °C 29.83in /  1010hPa WSW 7.1mph /  11.4km/h 15mph /  24.1km/h 87.5% 0.00in /  0mm 0 W/m2
18:39 57.6 °F /  14.2 °C 53.9 °F /  12.2 °C 29.83in /  1010hPa SW 10.7mph /  17.2km/h 17mph /  27.4km/h 87.5% 0.00in /  0mm 0 W/m2
18:44 57.7 °F /  14.3 °C 54.1 °F /  12.3 °C 29.83in /  1010hPa SW 7.3mph /  11.7km/h 17mph /  27.4km/h 88% 0.00in /  0mm 0 W/m2
18:49 57.7 °F /  14.3 °C 54.1 °F /  12.3 °C 29.83in /  1010hPa SW 7.2mph /  11.6km/h 13mph /  20.9km/h 88% 0.00in /  0mm 0 W/m2
18:54 57.7 °F /  14.3 °C 54.1 °F /  12.3 °C 29.83in /  1010hPa SW 7.9mph /  12.7km/h 15mph /  24.1km/h 88% 0.00in /  0mm 0 W/m2
18:59 57.7 °F /  14.3 °C 54.1 °F /  12.3 °C 29.83in /  1010hPa SW 7.8mph /  12.6km/h 17mph /  27.4km/h 88% 0.00in /  0mm 0 W/m2
19:04 57.7 °F /  14.3 °C 54.1 °F /  12.3 °C 29.83in /  1010hPa SW 8.5mph /  13.7km/h 15mph /  24.1km/h 88% 0.00in /  0mm 0 W/m2
19:09 57.7 °F /  14.3 °C 54.1 °F /  12.3 °C 29.83in /  1010hPa SW 9mph /  14.5km/h 17mph /  27.4km/h 88% 0.00in /  0mm 0 W/m2
19:14 57.8 °F /  14.3 °C 54.2 °F /  12.3 °C 29.82in /  1009.7hPa SW 7.1mph /  11.4km/h 13mph /  20.9km/h 88% 0.00in /  0mm 0 W/m2
19:19 57.9 °F /  14.4 °C 54.3 °F /  12.4 °C 29.82in /  1009.7hPa WSW 8mph /  12.9km/h 15mph /  24.1km/h 88% 0.00in /  0mm 0 W/m2
19:24 57.9 °F /  14.4 °C 54.1 °F /  12.3 °C 29.82in /  1009.7hPa SW 9.5mph /  15.3km/h 16mph /  25.7km/h 87.2% 0.00in /  0mm 0 W/m2
19:29 57.9 °F /  14.4 °C 54.1 °F /  12.3 °C 29.82in /  1009.7hPa SW 7.9mph /  12.7km/h 15mph /  24.1km/h 87% 0.00in /  0mm 0 W/m2
19:34 58 °F /  14.4 °C 54.2 °F /  12.3 °C 29.82in /  1009.7hPa SW 9.8mph /  15.8km/h 18mph /  29km/h 87% 0.00in /  0mm 0 W/m2
19:39 58.1 °F /  14.5 °C 54.3 °F /  12.4 °C 29.82in /  1009.7hPa WSW 7.8mph /  12.6km/h 18mph /  29km/h 87% 0.00in /  0mm 0 W/m2
19:44 58.1 °F /  14.5 °C 54.3 °F /  12.4 °C 29.82in /  1009.7hPa WSW 9.5mph /  15.3km/h 17mph /  27.4km/h 87% 0.00in /  0mm 0 W/m2
19:49 58.1 °F /  14.5 °C 54.3 °F /  12.4 °C 29.82in /  1009.7hPa SW 6.6mph /  10.6km/h 15mph /  24.1km/h 87% 0.00in /  0mm 0 W/m2
19:54 58.1 °F /  14.5 °C 54.3 °F /  12.4 °C 29.82in /  1009.7hPa SW 9.1mph /  14.6km/h 16mph /  25.7km/h 87% 0.00in /  0mm 0 W/m2
19:59 58.1 °F /  14.5 °C 54.3 °F /  12.4 °C 29.82in /  1009.7hPa WSW 8.5mph /  13.7km/h 16mph /  25.7km/h 87% 0.00in /  0mm 0 W/m2
20:04 58.1 °F /  14.5 °C 54.3 °F /  12.4 °C 29.82in /  1009.7hPa SW 8.3mph /  13.4km/h 16mph /  25.7km/h 87% 0.00in /  0mm 0 W/m2
20:09 58.2 °F /  14.6 °C 54.4 °F /  12.4 °C 29.82in /  1009.7hPa WSW 8.7mph /  14km/h 17mph /  27.4km/h 87% 0.00in /  0mm 0 W/m2
20:14 58.3 °F /  14.6 °C 54.5 °F /  12.5 °C 29.82in /  1009.7hPa SW 9.3mph /  15km/h 17mph /  27.4km/h 87% 0.00in /  0mm 0 W/m2
20:19 58.3 °F /  14.6 °C 54.5 °F /  12.5 °C 29.81in /  1009.4hPa SW 8.2mph /  13.2km/h 17mph /  27.4km/h 87% 0.00in /  0mm 0 W/m2
20:24 58.5 °F /  14.7 °C 54.7 °F /  12.6 °C 29.81in /  1009.4hPa SW 8.7mph /  14km/h 20mph /  32.2km/h 87% 0.00in /  0mm 0 W/m2
20:29 58.5 °F /  14.7 °C 54.7 °F /  12.6 °C 29.81in /  1009.4hPa SW 7.4mph /  11.9km/h 12mph /  19.3km/h 87% 0.00in /  0mm 0 W/m2
20:34 58.5 °F /  14.7 °C 54.7 °F /  12.6 °C 29.82in /  1009.7hPa SW 8.6mph /  13.8km/h 16mph /  25.7km/h 87% 0.00in /  0mm 0 W/m2
20:39 58.5 °F /  14.7 °C 54.7 °F /  12.6 °C 29.82in /  1009.7hPa SW 9.2mph /  14.8km/h 15mph /  24.1km/h 86.6% 0.00in /  0mm 0 W/m2
20:44 58.6 °F /  14.8 °C 54.4 °F /  12.4 °C 29.81in /  1009.4hPa SW 8.1mph /  13km/h 15mph /  24.1km/h 86% 0.00in /  0mm 0 W/m2
20:49 58.6 °F /  14.8 °C 54.5 °F /  12.5 °C 29.81in /  1009.4hPa SW 10.7mph /  17.2km/h 18mph /  29km/h 86% 0.00in /  0mm 0 W/m2
20:54 58.6 °F /  14.8 °C 54.5 °F /  12.5 °C 29.81in /  1009.4hPa SW 11.2mph /  18km/h 20mph /  32.2km/h 86% 0.00in /  0mm 0 W/m2
20:59 58.6 °F /  14.8 °C 54.5 °F /  12.5 °C 29.81in /  1009.4hPa SW 8.4mph /  13.5km/h 16mph /  25.7km/h 86% 0.00in /  0mm 0 W/m2
21:04 58.6 °F /  14.8 °C 54.5 °F /  12.5 °C 29.81in /  1009.4hPa SW 7.8mph /  12.6km/h 16mph /  25.7km/h 86% 0.00in /  0mm 0 W/m2
21:09 58.6 °F /  14.8 °C 54.5 °F /  12.5 °C 29.81in /  1009.4hPa SW 10mph /  16.1km/h 17mph /  27.4km/h 86% 0.00in /  0mm 0 W/m2
21:14 58.6 °F /  14.8 °C 54.5 °F /  12.5 °C 29.81in /  1009.4hPa SW 6.3mph /  10.1km/h 17mph /  27.4km/h 86% 0.00in /  0mm 0 W/m2
21:19 58.6 °F /  14.8 °C 54.5 °F /  12.5 °C 29.81in /  1009.4hPa SW 6.8mph /  10.9km/h 14mph /  22.5km/h 86% 0.00in /  0mm 0 W/m2
21:24 58.6 °F /  14.8 °C 54.5 °F /  12.5 °C 29.81in /  1009.4hPa SW 9.9mph /  15.9km/h 17mph /  27.4km/h 86% 0.00in /  0mm 0 W/m2
21:29 58.7 °F /  14.8 °C 54.6 °F /  12.6 °C 29.81in /  1009.4hPa SW 7.8mph /  12.6km/h 17mph /  27.4km/h 86% 0.00in /  0mm 0 W/m2
21:34 58.7 °F /  14.8 °C 54.6 °F /  12.6 °C 29.80in /  1009hPa SW 7.5mph /  12.1km/h 17mph /  27.4km/h 86% 0.00in /  0mm 0 W/m2
21:39 58.7 °F /  14.8 °C 54.6 °F /  12.6 °C 29.80in /  1009hPa SW 7.4mph /  11.9km/h 17mph /  27.4km/h 86% 0.00in /  0mm 0 W/m2
21:44 58.8 °F /  14.9 °C 54.7 °F /  12.6 °C 29.80in /  1009hPa WSW 10mph /  16.1km/h 21mph /  33.8km/h 86% 0.00in /  0mm 0 W/m2
21:49 58.8 °F /  14.9 °C 54.7 °F /  12.6 °C 29.80in /  1009hPa WSW 8.5mph /  13.7km/h 15mph /  24.1km/h 86% 0.00in /  0mm 0 W/m2
21:54 58.8 °F /  14.9 °C 54.7 °F /  12.6 °C 29.80in /  1009hPa WSW 10.3mph /  16.6km/h 16mph /  25.7km/h 86% 0.00in /  0mm 0 W/m2
21:59 58.6 °F /  14.8 °C 54.6 °F /  12.6 °C 29.80in /  1009hPa SW 8.3mph /  13.4km/h 15mph /  24.1km/h 86.1% 0.00in /  0mm 0 W/m2
22:04 58.6 °F /  14.8 °C 54.8 °F /  12.7 °C 29.80in /  1009hPa WSW 8mph /  12.9km/h 14mph /  22.5km/h 87% 0.00in /  0mm 0 W/m2
22:09 58.4 °F /  14.7 °C 54.6 °F /  12.6 °C 29.80in /  1009hPa WSW 10.1mph /  16.3km/h 17mph /  27.4km/h 87.2% 0.01in /  0.25mm 0 W/m2
22:14 58 °F /  14.4 °C 54.5 °F /  12.5 °C 29.80in /  1009hPa WSW 7.2mph /  11.6km/h 17mph /  27.4km/h 88.2% 0.01in /  0.25mm 0 W/m2
22:19 57.8 °F /  14.3 °C 54.6 °F /  12.6 °C 29.80in /  1009hPa WSW 6mph /  9.7km/h 12mph /  19.3km/h 89% 0.02in /  0.51mm 0 W/m2
22:24 57.7 °F /  14.3 °C 54.6 °F /  12.6 °C 29.80in /  1009hPa WSW 5mph /  8km/h 13mph /  20.9km/h 89.4% 0.02in /  0.51mm 0 W/m2
22:29 57.6 °F /  14.2 °C 54.7 °F /  12.6 °C 29.80in /  1009hPa WSW 7.7mph /  12.4km/h 14mph /  22.5km/h 90% 0.02in /  0.51mm 0 W/m2
22:34 57.6 °F /  14.2 °C 54.7 °F /  12.6 °C 29.81in /  1009.4hPa WSW 5.3mph /  8.5km/h 14mph /  22.5km/h 90% 0.03in /  0.76mm 0 W/m2
22:39 57.4 °F /  14.1 °C 54.8 °F /  12.7 °C 29.80in /  1009hPa WSW 6.6mph /  10.6km/h 13mph /  20.9km/h 90.6% 0.03in /  0.76mm 0 W/m2
22:44 57.4 °F /  14.1 °C 54.9 °F /  12.7 °C 29.80in /  1009hPa WSW 5.6mph /  9km/h 11mph /  17.7km/h 91% 0.04in /  1.02mm 0 W/m2
22:49 57.4 °F /  14.1 °C 54.9 °F /  12.7 °C 29.80in /  1009hPa WSW 5.6mph /  9km/h 10mph /  16.1km/h 91% 0.05in /  1.27mm 0 W/m2
22:54 57.5 °F /  14.2 °C 54.9 °F /  12.7 °C 29.80in /  1009hPa SW 6.4mph /  10.3km/h 12mph /  19.3km/h 91% 0.06in /  1.52mm 0 W/m2
22:59 57.6 °F /  14.2 °C 55 °F /  12.8 °C 29.80in /  1009hPa SW 7.6mph /  12.2km/h 12mph /  19.3km/h 91% 0.06in /  1.52mm 0 W/m2
23:04 57.6 °F /  14.2 °C 55 °F /  12.8 °C 29.80in /  1009hPa SW 7.8mph /  12.6km/h 13mph /  20.9km/h 91% 0.06in /  1.52mm 0 W/m2
23:09 57.6 °F /  14.2 °C 55 °F /  12.8 °C 29.79in /  1008.7hPa SW 8.1mph /  13km/h 14mph /  22.5km/h 91% 0.06in /  1.52mm 0 W/m2
23:14 57.6 °F /  14.2 °C 55 °F /  12.8 °C 29.79in /  1008.7hPa WSW 5.7mph /  9.2km/h 13mph /  20.9km/h 91% 0.06in /  1.52mm 0 W/m2
23:19 57.6 °F /  14.2 °C 55 °F /  12.8 °C 29.79in /  1008.7hPa WSW 7.4mph /  11.9km/h 12mph /  19.3km/h 91% 0.06in /  1.52mm 0 W/m2
23:24 57.7 °F /  14.3 °C 55.2 °F /  12.9 °C 29.79in /  1008.7hPa SW 8.9mph /  14.3km/h 17mph /  27.4km/h 91% 0.06in /  1.52mm 0 W/m2
23:29 57.8 °F /  14.3 °C 55.2 °F /  12.9 °C 29.79in /  1008.7hPa SW 7.5mph /  12.1km/h 15mph /  24.1km/h 91% 0.06in /  1.52mm 0 W/m2
23:34 57.9 °F /  14.4 °C 55.2 °F /  12.9 °C 29.79in /  1008.7hPa SW 8.9mph /  14.3km/h 15mph /  24.1km/h 91% 0.05in /  1.27mm 0 W/m2
23:39 58 °F /  14.4 °C 55.1 °F /  12.8 °C 29.79in /  1008.7hPa WSW 9mph /  14.5km/h 16mph /  25.7km/h 90.1% 0.04in /  1.02mm 0 W/m2
23:44 57.9 °F /  14.4 °C 55 °F /  12.8 °C 29.79in /  1008.7hPa SW 7.4mph /  11.9km/h 16mph /  25.7km/h 90% 0.04in /  1.02mm 0 W/m2
23:49 57.9 °F /  14.4 °C 55 °F /  12.8 °C 29.79in /  1008.7hPa WSW 7.4mph /  11.9km/h 12mph /  19.3km/h 90% 0.03in /  0.76mm 0 W/m2
23:54 57.9 °F /  14.4 °C 55 °F /  12.8 °C 29.79in /  1008.7hPa SW 7mph /  11.3km/h 12mph /  19.3km/h 90% 0.03in /  0.76mm 0 W/m2
23:59 57.8 °F /  14.3 °C 54.9 °F /  12.7 °C 29.79in /  1008.7hPa SW 5mph /  8km/h 12mph /  19.3km/h 90% 0.03in /  0.76mm 0 W/m2
Bath Spa Weather
Compliments of Weather Underground - 2 mb